createdAt,value
2018-04-30T00:02:15.466Z,7.50
2018-04-30T00:04:43.067Z,7.87
2018-04-30T00:07:10.616Z,8.77
2018-04-30T00:09:38.130Z,9.13
2018-04-30T00:12:05.666Z,8.77
2018-04-30T00:14:33.301Z,8.57
2018-04-30T00:17:01.749Z,8.53
2018-04-30T00:19:29.243Z,10.00
2018-04-30T00:21:56.800Z,9.37
2018-04-30T00:24:24.517Z,11.70
2018-04-30T00:26:52.117Z,9.10
2018-04-30T00:29:19.633Z,9.03
2018-04-30T00:31:47.151Z,7.87
2018-04-30T00:34:15.137Z,7.90
2018-04-30T00:36:43.429Z,8.27
2018-04-30T00:39:11.790Z,8.30
2018-04-30T00:41:40.205Z,7.87
2018-04-30T00:44:07.731Z,10.70
2018-04-30T00:46:35.620Z,8.60
2018-04-30T00:49:03.277Z,13.20
2018-04-30T00:51:30.805Z,11.90
2018-04-30T00:53:58.460Z,10.73
2018-04-30T00:56:26.287Z,9.77
2018-04-30T00:58:53.821Z,10.97
2018-04-30T01:01:21.957Z,9.33
2018-04-30T01:03:49.592Z,10.17
2018-04-30T01:06:17.321Z,9.83
2018-04-30T01:08:44.880Z,11.97
2018-04-30T01:11:13.165Z,10.67
2018-04-30T01:13:40.714Z,12.07
2018-04-30T01:16:09.607Z,9.73
2018-04-30T01:18:38.095Z,10.03
2018-04-30T01:21:05.823Z,11.20
2018-04-30T01:23:33.359Z,9.87
2018-04-30T01:26:00.910Z,11.27
2018-04-30T01:28:28.773Z,13.70
2018-04-30T01:30:56.330Z,10.80
2018-04-30T01:33:23.896Z,12.23
2018-04-30T01:35:51.810Z,10.40
2018-04-30T01:38:19.373Z,11.10
2018-04-30T01:40:46.882Z,11.83
2018-04-30T01:43:14.435Z,12.23
2018-04-30T01:45:42.028Z,11.90
2018-04-30T01:48:09.773Z,14.57
2018-04-30T01:50:37.287Z,12.43
2018-04-30T01:53:05.607Z,13.20
2018-04-30T01:55:33.207Z,12.83
2018-04-30T01:58:00.716Z,13.37
2018-04-30T02:00:28.482Z,14.93
2018-04-30T02:02:56.082Z,13.80
2018-04-30T02:05:23.694Z,13.90
2018-04-30T02:07:51.351Z,13.67
2018-04-30T02:10:18.974Z,15.17
2018-04-30T02:12:46.584Z,14.93
2018-04-30T02:15:14.141Z,13.00
2018-04-30T02:17:41.985Z,14.23
2018-04-30T02:20:10.262Z,13.13
2018-04-30T02:22:38.525Z,12.83
2018-04-30T02:25:07.078Z,14.30
2018-04-30T02:27:34.669Z,14.47
2018-04-30T02:30:02.192Z,16.97
2018-04-30T02:32:30.030Z,14.70
2018-04-30T02:34:57.543Z,15.50
2018-04-30T02:37:25.642Z,15.57
2018-04-30T02:39:53.221Z,15.43
2018-04-30T02:42:20.738Z,14.50
2018-04-30T02:44:48.269Z,17.53
2018-04-30T02:47:16.764Z,18.43
2018-04-30T02:49:44.279Z,14.27
2018-04-30T02:52:11.804Z,15.57
2018-04-30T02:54:39.329Z,15.20
2018-04-30T02:57:06.886Z,15.00
2018-04-30T02:59:34.414Z,17.33
2018-04-30T03:02:01.956Z,16.93
2018-04-30T03:04:29.527Z,15.27
2018-04-30T03:06:57.055Z,16.10
2018-04-30T03:09:24.884Z,14.20
2018-04-30T03:11:52.451Z,20.23
2018-04-30T03:14:20.019Z,17.30
2018-04-30T03:16:47.636Z,15.30
2018-04-30T03:19:15.464Z,16.03
2018-04-30T03:21:43.024Z,15.87
2018-04-30T03:24:10.557Z,14.73
2018-04-30T03:26:38.081Z,15.33
2018-04-30T03:29:05.706Z,15.10
2018-04-30T03:31:33.255Z,15.50
2018-04-30T03:34:00.780Z,13.87
2018-04-30T03:36:28.318Z,14.13
2018-04-30T03:38:55.840Z,13.90
2018-04-30T03:41:23.448Z,13.93
2018-04-30T03:43:50.998Z,16.43
2018-04-30T03:46:18.520Z,15.43
2018-04-30T03:48:46.044Z,16.37
2018-04-30T03:51:14.666Z,14.13
2018-04-30T03:53:42.196Z,15.07
2018-04-30T03:56:09.734Z,15.67
2018-04-30T03:58:37.503Z,14.83
2018-04-30T04:01:16.939Z,14.30
2018-04-30T04:03:56.366Z,12.57
2018-04-30T04:06:29.834Z,15.87
2018-04-30T04:08:57.537Z,12.47
2018-04-30T04:11:25.055Z,12.97
2018-04-30T04:13:53.388Z,12.67
2018-04-30T04:16:20.936Z,13.07
2018-04-30T04:18:48.618Z,12.10
2018-04-30T04:21:17.124Z,12.23
2018-04-30T04:23:45.473Z,13.13
2018-04-30T04:26:13.579Z,12.83
2018-04-30T04:28:41.967Z,13.30
2018-04-30T04:31:09.516Z,11.17
2018-04-30T04:33:37.107Z,11.77
2018-04-30T04:36:05.463Z,10.73
2018-04-30T04:38:33.019Z,11.27
2018-04-30T04:41:00.535Z,12.30
2018-04-30T04:43:28.115Z,11.27
2018-04-30T04:45:55.661Z,10.60
2018-04-30T04:48:23.184Z,11.57
2018-04-30T04:50:51.492Z,10.93
2018-04-30T04:53:19.402Z,11.33
2018-04-30T04:55:47.007Z,11.17
2018-04-30T04:58:14.682Z,10.50
2018-04-30T05:00:42.269Z,10.07
2018-04-30T05:03:10.211Z,12.80
2018-04-30T05:05:37.835Z,10.97
2018-04-30T05:08:06.162Z,10.50
2018-04-30T05:10:33.675Z,10.17
2018-04-30T05:13:01.969Z,11.87
2018-04-30T05:15:29.476Z,11.17
2018-04-30T05:17:57.009Z,8.87
2018-04-30T05:20:24.564Z,9.83
2018-04-30T05:22:52.093Z,14.77
2018-04-30T05:25:19.709Z,13.27
2018-04-30T05:27:47.417Z,11.43
2018-04-30T05:30:14.948Z,13.67
2018-04-30T05:32:42.519Z,13.13
2018-04-30T05:35:10.996Z,11.88
2018-04-30T05:37:38.576Z,10.60
2018-04-30T05:40:06.188Z,15.13
2018-04-30T05:42:33.852Z,9.02
2018-04-30T05:45:01.439Z,10.88
2018-04-30T05:47:29.829Z,10.73
2018-04-30T05:49:58.191Z,10.73
2018-04-30T05:52:25.710Z,11.90
2018-04-30T05:54:53.248Z,9.80
2018-04-30T05:57:20.977Z,11.33
2018-04-30T05:59:48.574Z,11.25
2018-04-30T06:02:16.203Z,10.43
2018-04-30T06:04:43.762Z,10.07
2018-04-30T06:07:11.430Z,10.83
2018-04-30T06:09:38.984Z,12.57
2018-04-30T06:12:06.540Z,12.15
2018-04-30T06:14:34.011Z,10.43
2018-04-30T06:17:02.442Z,10.13
2018-04-30T06:19:29.956Z,10.75
2018-04-30T06:21:57.500Z,10.77
2018-04-30T06:24:25.041Z,11.50
2018-04-30T06:26:52.656Z,12.98
2018-04-30T06:29:20.854Z,10.57
2018-04-30T06:31:48.399Z,10.55
2018-04-30T06:34:15.984Z,12.45
2018-04-30T06:36:44.826Z,9.95
2018-04-30T06:39:13.128Z,11.05
2018-04-30T06:41:40.747Z,10.45
2018-04-30T06:44:08.302Z,9.95
2018-04-30T06:46:35.842Z,10.57
2018-04-30T06:49:03.355Z,10.02
2018-04-30T06:51:30.997Z,10.52
2018-04-30T06:53:58.489Z,9.95
2018-04-30T06:56:26.009Z,10.57
2018-04-30T06:58:53.536Z,9.68
2018-04-30T07:01:21.103Z,12.32
2018-04-30T07:03:48.850Z,10.63
2018-04-30T07:06:16.397Z,12.27
2018-04-30T07:08:44.035Z,10.48
2018-04-30T07:11:12.924Z,9.93
2018-04-30T07:13:41.355Z,13.82
2018-04-30T07:16:08.898Z,10.93
2018-04-30T07:18:36.420Z,10.20
2018-04-30T07:21:04.125Z,10.73
2018-04-30T07:23:32.642Z,9.57
2018-04-30T07:26:00.287Z,11.10
2018-04-30T07:28:27.851Z,9.82
2018-04-30T07:30:55.385Z,13.95
2018-04-30T07:33:22.917Z,12.05
2018-04-30T07:35:50.535Z,9.82
2018-04-30T07:38:18.065Z,9.30
2018-04-30T07:40:46.347Z,10.07
2018-04-30T07:43:13.903Z,10.05
2018-04-30T07:45:41.567Z,10.38
2018-04-30T07:48:09.139Z,10.88
2018-04-30T07:50:37.040Z,10.27
2018-04-30T07:53:06.425Z,14.20
2018-04-30T07:55:35.226Z,9.93
2018-04-30T07:58:03.467Z,12.00
2018-04-30T08:00:31.029Z,11.65
2018-04-30T08:02:58.689Z,12.07
2018-04-30T08:05:26.229Z,11.43
2018-04-30T08:07:53.858Z,14.30
2018-04-30T08:10:21.419Z,13.75
2018-04-30T08:12:48.972Z,11.98
2018-04-30T08:15:17.328Z,10.68
2018-04-30T08:17:44.920Z,11.88
2018-04-30T08:20:12.529Z,15.18
2018-04-30T08:22:40.398Z,13.38
2018-04-30T08:25:08.146Z,11.35
2018-04-30T08:27:35.929Z,13.80
2018-04-30T08:30:03.475Z,12.40
2018-04-30T08:32:31.028Z,15.43
2018-04-30T08:34:59.324Z,14.55
2018-04-30T08:37:27.080Z,14.77
2018-04-30T08:39:54.613Z,14.98
2018-04-30T08:42:22.139Z,16.00
2018-04-30T08:44:49.747Z,12.70
2018-04-30T08:47:18.094Z,13.70
2018-04-30T08:49:45.648Z,12.25
2018-04-30T08:52:13.422Z,14.45
2018-04-30T08:54:40.904Z,14.60
2018-04-30T08:57:08.462Z,11.70
2018-04-30T08:59:36.113Z,13.52
2018-04-30T09:02:03.680Z,12.40
2018-04-30T09:04:31.966Z,14.57
2018-04-30T09:06:59.538Z,12.88
2018-04-30T09:09:27.270Z,14.23
2018-04-30T09:11:55.549Z,13.75
2018-04-30T09:14:23.125Z,13.82
2018-04-30T09:16:50.719Z,13.98
2018-04-30T09:19:18.756Z,11.07
2018-04-30T09:21:46.660Z,13.60
2018-04-30T09:24:14.191Z,12.88
2018-04-30T09:26:42.476Z,12.37
2018-04-30T09:29:10.883Z,13.82
2018-04-30T09:31:38.748Z,12.88
2018-04-30T09:34:06.924Z,13.13
2018-04-30T09:36:34.648Z,12.20
2018-04-30T09:39:02.523Z,14.77
2018-04-30T09:41:30.067Z,18.48
2018-04-30T09:43:58.417Z,13.02
2018-04-30T09:46:26.055Z,16.00
2018-04-30T09:48:54.311Z,17.67
2018-04-30T09:51:21.843Z,11.75
2018-04-30T09:53:49.447Z,12.02
2018-04-30T09:56:17.079Z,13.25
2018-04-30T09:58:46.525Z,12.00
2018-04-30T10:01:14.096Z,14.00
2018-04-30T10:03:41.686Z,12.43
2018-04-30T10:06:09.338Z,17.52
2018-04-30T10:08:36.963Z,26.73
2018-04-30T10:11:04.561Z,26.08
2018-04-30T10:13:32.104Z,12.98
2018-04-30T10:15:59.857Z,15.00
2018-04-30T10:18:27.384Z,17.52
2018-04-30T10:20:54.919Z,12.23
2018-04-30T10:23:23.402Z,16.60
2018-04-30T10:25:50.964Z,20.17
2018-04-30T10:28:19.393Z,15.82
2018-04-30T10:30:47.085Z,13.85
2018-04-30T10:33:14.768Z,13.02
2018-04-30T10:35:43.146Z,11.15
2018-04-30T10:38:10.693Z,7.57
2018-04-30T10:40:38.449Z,16.08
2018-04-30T10:43:05.977Z,11.35
2018-04-30T10:45:34.219Z,11.88
2018-04-30T10:48:01.752Z,10.57
2018-04-30T10:50:29.309Z,12.00
2018-04-30T10:52:57.035Z,6.95
2018-04-30T10:55:24.687Z,9.13
2018-04-30T10:57:52.348Z,8.40
2018-04-30T11:00:19.930Z,12.60
2018-04-30T11:02:47.493Z,10.57
2018-04-30T11:05:15.725Z,10.35
2018-04-30T11:07:44.178Z,10.73
2018-04-30T11:10:11.796Z,9.27
2018-04-30T11:12:40.353Z,7.18
2018-04-30T11:15:09.515Z,9.35
2018-04-30T11:17:37.287Z,6.50
2018-04-30T11:20:04.883Z,6.40
2018-04-30T11:22:32.402Z,7.90
2018-04-30T11:24:59.980Z,7.87
2018-04-30T11:27:27.546Z,5.53
2018-04-30T11:29:56.130Z,5.35
2018-04-30T11:32:23.860Z,4.93
2018-04-30T11:34:51.914Z,18.10
2018-04-30T11:37:19.460Z,2.93
2018-04-30T11:39:47.036Z,6.20
2018-04-30T11:42:14.776Z,5.93
2018-04-30T11:44:42.392Z,7.78
2018-04-30T11:47:10.063Z,5.03
2018-04-30T11:49:37.634Z,5.68
2018-04-30T11:52:05.218Z,8.95
2018-04-30T11:54:32.853Z,7.35
2018-04-30T11:57:01.555Z,6.22
2018-04-30T11:59:29.222Z,9.63
2018-04-30T12:01:56.869Z,3.62
2018-04-30T12:04:24.742Z,7.95
2018-04-30T12:06:52.449Z,7.62
2018-04-30T12:09:20.075Z,3.22
2018-04-30T12:11:48.490Z,4.85
2018-04-30T12:14:17.552Z,6.30
2018-04-30T12:16:46.008Z,5.00
2018-04-30T12:19:13.678Z,2.50
2018-04-30T12:21:42.123Z,6.80
2018-04-30T12:24:09.659Z,3.07
2018-04-30T12:26:37.322Z,5.17
2018-04-30T12:29:04.900Z,3.07
2018-04-30T12:31:32.599Z,2.33
2018-04-30T12:34:00.442Z,6.93
2018-04-30T12:36:28.146Z,3.50
2018-04-30T12:38:56.257Z,2.72
2018-04-30T12:41:24.018Z,5.72
2018-04-30T12:43:51.628Z,3.53
2018-04-30T12:46:19.189Z,5.40
2018-04-30T12:48:48.397Z,2.60
2018-04-30T12:51:16.164Z,4.60
2018-04-30T12:53:43.928Z,6.10
2018-04-30T12:56:11.491Z,5.03
2018-04-30T12:58:39.119Z,2.10
2018-04-30T13:01:06.741Z,7.43
2018-04-30T13:03:34.327Z,3.67
2018-04-30T13:06:01.995Z,3.03
2018-04-30T13:08:29.582Z,4.63
2018-04-30T13:10:57.135Z,2.47
2018-04-30T13:13:24.690Z,1.60
2018-04-30T13:15:52.292Z,2.50
2018-04-30T13:18:19.900Z,3.67
2018-04-30T13:20:47.486Z,3.50
2018-04-30T13:23:15.159Z,2.53
2018-04-30T13:25:42.928Z,4.07
2018-04-30T13:28:10.901Z,3.90
2018-04-30T13:30:39.392Z,3.90
2018-04-30T13:33:07.977Z,5.30
2018-04-30T13:35:35.770Z,3.20
2018-04-30T13:38:03.283Z,5.70
2018-04-30T13:40:30.823Z,2.97
2018-04-30T13:42:58.884Z,4.33
2018-04-30T13:45:26.507Z,3.60
2018-04-30T13:47:54.681Z,5.27
2018-04-30T13:50:22.193Z,7.17
2018-04-30T13:52:49.831Z,7.20
2018-04-30T13:55:19.074Z,7.93
2018-04-30T13:57:47.469Z,2.23
2018-04-30T14:00:15.875Z,6.87
2018-04-30T14:02:43.559Z,4.03
2018-04-30T14:05:11.268Z,4.53
2018-04-30T14:07:39.599Z,5.33
2018-04-30T14:10:07.155Z,6.13
2018-04-30T14:12:35.109Z,4.90
2018-04-30T14:15:02.751Z,3.40
2018-04-30T14:17:30.557Z,3.83
2018-04-30T14:19:58.108Z,4.30
2018-04-30T14:22:25.645Z,6.50
2018-04-30T14:24:53.186Z,4.73
2018-04-30T14:27:20.758Z,4.03
2018-04-30T14:29:48.431Z,2.50
2018-04-30T14:32:15.951Z,3.47
2018-04-30T14:34:43.593Z,3.00
2018-04-30T14:37:11.329Z,2.80
2018-04-30T14:39:38.950Z,6.10
2018-04-30T14:42:06.671Z,2.23
2018-04-30T14:44:34.263Z,2.53
2018-04-30T14:47:03.033Z,6.03
2018-04-30T14:49:30.643Z,6.17
2018-04-30T14:51:58.597Z,1.80
2018-04-30T14:54:26.126Z,3.77
2018-04-30T14:56:53.721Z,4.77
2018-04-30T14:59:22.039Z,5.40
2018-04-30T15:01:49.594Z,5.20
2018-04-30T15:04:17.183Z,5.23
2018-04-30T15:06:44.840Z,4.00
2018-04-30T15:09:12.642Z,4.53
2018-04-30T15:11:41.093Z,3.00
2018-04-30T15:14:08.629Z,3.30
2018-04-30T15:16:36.179Z,1.50
2018-04-30T15:19:03.969Z,1.40
2018-04-30T15:21:31.994Z,3.13
2018-04-30T15:24:00.915Z,4.30
2018-04-30T15:26:28.456Z,2.13
2018-04-30T15:28:55.975Z,8.77
2018-04-30T15:31:24.549Z,4.90
2018-04-30T15:33:52.059Z,5.70
2018-04-30T15:36:19.835Z,2.20
2018-04-30T15:38:47.397Z,3.90
2018-04-30T15:41:15.235Z,3.90
2018-04-30T15:43:42.989Z,3.00
2018-04-30T15:46:11.399Z,3.23
2018-04-30T15:48:38.949Z,1.73
2018-04-30T15:51:06.496Z,2.53
2018-04-30T15:53:34.095Z,4.93
2018-04-30T15:56:01.755Z,7.67
2018-04-30T15:58:29.369Z,4.33
2018-04-30T16:00:56.925Z,2.37
2018-04-30T16:03:24.436Z,4.30
2018-04-30T16:05:52.199Z,4.23
2018-04-30T16:08:20.036Z,1.87
2018-04-30T16:10:47.553Z,3.00
2018-04-30T16:13:16.560Z,3.27
2018-04-30T16:15:44.153Z,1.90
2018-04-30T16:18:11.706Z,3.00
2018-04-30T16:20:40.084Z,5.03
2018-04-30T16:23:07.622Z,2.67
2018-04-30T16:25:35.226Z,10.40
2018-04-30T16:28:02.904Z,4.60
2018-04-30T16:30:30.447Z,2.23
2018-04-30T16:32:58.639Z,3.73
2018-04-30T16:35:26.230Z,2.77
2018-04-30T16:37:53.773Z,2.90
2018-04-30T16:40:21.790Z,7.57
2018-04-30T16:42:50.140Z,8.70
2018-04-30T16:45:17.936Z,4.47
2018-04-30T16:47:46.181Z,5.03
2018-04-30T16:50:14.204Z,3.47
2018-04-30T16:52:41.731Z,4.90
2018-04-30T16:55:10.045Z,3.50
2018-04-30T16:57:37.585Z,10.20
2018-04-30T17:00:06.696Z,6.13
2018-04-30T17:02:34.424Z,6.87
2018-04-30T17:05:02.767Z,2.33
2018-04-30T17:07:30.263Z,3.40
2018-04-30T17:09:58.566Z,9.90
2018-04-30T17:12:26.112Z,9.50
2018-04-30T17:14:53.773Z,7.13
2018-04-30T17:17:22.087Z,8.33
2018-04-30T17:19:49.640Z,4.40
2018-04-30T17:22:17.212Z,3.77
2018-04-30T17:24:44.860Z,11.03
2018-04-30T17:27:12.572Z,2.53
2018-04-30T17:29:40.163Z,13.23
2018-04-30T17:32:07.714Z,17.87
2018-04-30T17:34:35.280Z,5.60
2018-04-30T17:37:02.880Z,5.90
2018-04-30T17:39:30.447Z,3.40
2018-04-30T17:41:58.008Z,3.67
2018-04-30T17:44:25.733Z,2.40
2018-04-30T17:46:54.288Z,8.57
2018-04-30T17:49:21.878Z,4.60
2018-04-30T17:51:50.392Z,2.77
2018-04-30T17:54:18.001Z,4.97
2018-04-30T17:56:46.515Z,7.27
2018-04-30T17:59:14.282Z,8.73
2018-04-30T18:01:41.843Z,6.17
2018-04-30T18:04:09.927Z,6.77
2018-04-30T18:06:37.507Z,4.83
2018-04-30T18:09:05.984Z,6.70
2018-04-30T18:11:33.517Z,2.37
2018-04-30T18:14:01.079Z,4.67
2018-04-30T18:16:28.618Z,11.00
2018-04-30T18:18:56.179Z,8.73
2018-04-30T18:21:23.704Z,2.60
2018-04-30T18:23:51.250Z,2.40
2018-04-30T18:26:18.738Z,3.50
2018-04-30T18:28:46.278Z,4.33
2018-04-30T18:31:14.179Z,5.73
2018-04-30T18:33:41.722Z,10.80
2018-04-30T18:36:09.373Z,6.30
2018-04-30T18:38:36.966Z,2.30
2018-04-30T18:41:04.536Z,3.63
2018-04-30T18:43:32.176Z,3.50
2018-04-30T18:46:01.046Z,5.53
2018-04-30T18:48:30.503Z,4.83
2018-04-30T18:50:58.089Z,8.03
2018-04-30T18:53:25.688Z,7.13
2018-04-30T18:55:54.178Z,3.20
2018-04-30T18:58:22.518Z,6.73
2018-04-30T19:00:50.071Z,6.00
2018-04-30T19:03:17.648Z,4.30
2018-04-30T19:05:45.198Z,3.97
2018-04-30T19:08:13.540Z,4.20
2018-04-30T19:10:41.090Z,2.73
2018-04-30T19:13:08.917Z,5.37
2018-04-30T19:15:36.569Z,6.17
2018-04-30T19:18:04.096Z,7.27
2018-04-30T19:20:31.618Z,2.33
2018-04-30T19:22:59.913Z,3.40
2018-04-30T19:25:27.432Z,3.97
2018-04-30T19:27:56.029Z,6.03
2018-04-30T19:30:25.001Z,3.50
2018-04-30T19:32:52.553Z,6.93
2018-04-30T19:35:20.211Z,4.13
2018-04-30T19:37:48.136Z,24.33
2018-04-30T19:40:15.851Z,6.60
2018-04-30T19:42:43.415Z,5.07
2018-04-30T19:45:10.965Z,3.60
2018-04-30T19:47:38.524Z,8.23
2018-04-30T19:50:06.137Z,5.07
2018-04-30T19:52:35.207Z,3.20
2018-04-30T19:55:02.765Z,3.53
2018-04-30T19:57:31.083Z,3.50
2018-04-30T19:59:58.674Z,2.87
2018-04-30T20:02:26.261Z,4.13
2018-04-30T20:04:53.915Z,3.93
2018-04-30T20:07:21.564Z,3.50
2018-04-30T20:09:49.110Z,4.20
2018-04-30T20:12:16.763Z,6.50
2018-04-30T20:14:44.348Z,3.37
2018-04-30T20:17:11.911Z,4.00
2018-04-30T20:19:39.508Z,4.60
2018-04-30T20:22:08.693Z,3.53
2018-04-30T20:24:36.268Z,4.83
2018-04-30T20:27:04.627Z,3.37
2018-04-30T20:29:32.149Z,4.00
2018-04-30T20:31:59.730Z,5.33
2018-04-30T20:34:27.256Z,4.67
2018-04-30T20:36:54.978Z,4.80
2018-04-30T20:39:22.562Z,5.13
2018-04-30T20:41:50.105Z,3.90
2018-04-30T20:44:17.788Z,4.53
2018-04-30T20:46:46.232Z,4.70
2018-04-30T20:49:13.883Z,5.57
2018-04-30T20:51:41.714Z,6.07
2018-04-30T20:54:09.288Z,7.27
2018-04-30T20:56:36.918Z,5.60
2018-04-30T20:59:04.477Z,5.50
2018-04-30T21:01:32.010Z,6.60
2018-04-30T21:03:59.578Z,5.50
2018-04-30T21:06:28.799Z,8.03
2018-04-30T21:09:07.986Z,6.57
2018-04-30T21:11:35.632Z,5.77
2018-04-30T21:14:03.162Z,4.57
2018-04-30T21:16:30.721Z,6.93
2018-04-30T21:18:58.867Z,6.93
2018-04-30T21:21:26.442Z,5.00
2018-04-30T21:23:53.953Z,13.87
2018-04-30T21:26:21.603Z,12.23
2018-04-30T21:28:49.244Z,4.60
2018-04-30T21:31:16.820Z,8.20
2018-04-30T21:33:44.473Z,6.20
2018-04-30T21:36:12.096Z,4.77
2018-04-30T21:38:40.428Z,7.20
2018-04-30T21:41:08.103Z,7.93
2018-04-30T21:43:35.716Z,5.00
2018-04-30T21:46:03.492Z,14.67
2018-04-30T21:48:31.075Z,9.60
2018-04-30T21:50:58.629Z,7.87
2018-04-30T21:53:26.801Z,5.80
2018-04-30T21:55:54.337Z,9.27
2018-04-30T21:58:21.859Z,9.17
2018-04-30T22:00:49.415Z,10.37
2018-04-30T22:03:16.948Z,10.67
2018-04-30T22:05:44.542Z,10.27
2018-04-30T22:08:12.066Z,7.73
2018-04-30T22:10:39.585Z,15.57
2018-04-30T22:13:07.899Z,6.77
2018-04-30T22:15:35.534Z,7.47
2018-04-30T22:18:03.816Z,8.10
2018-04-30T22:20:31.398Z,8.10
2018-04-30T22:22:58.982Z,14.77
2018-04-30T22:25:26.522Z,12.57
2018-04-30T22:27:54.076Z,7.30
2018-04-30T22:30:21.702Z,7.47
2018-04-30T22:32:49.326Z,7.70
2018-04-30T22:35:16.850Z,8.60
2018-04-30T22:37:44.358Z,6.70
2018-04-30T22:40:11.919Z,6.20
2018-04-30T22:42:39.432Z,7.70
2018-04-30T22:45:06.963Z,7.30
2018-04-30T22:47:35.317Z,5.77
2018-04-30T22:50:02.964Z,6.87
2018-04-30T22:52:30.499Z,7.30
2018-04-30T22:54:58.152Z,7.23
2018-04-30T22:57:25.746Z,6.33
2018-04-30T22:59:53.258Z,6.00
2018-04-30T23:02:20.752Z,5.67
2018-04-30T23:04:48.265Z,5.53
2018-04-30T23:07:16.011Z,5.60
2018-04-30T23:09:43.538Z,5.20
2018-04-30T23:12:11.028Z,5.93
2018-04-30T23:14:38.529Z,5.93
2018-04-30T23:17:06.052Z,4.80
2018-04-30T23:19:34.367Z,6.30
2018-04-30T23:22:01.896Z,5.50
2018-04-30T23:24:30.296Z,9.37
2018-04-30T23:26:57.816Z,5.30
2018-04-30T23:29:25.462Z,6.60
2018-04-30T23:31:52.994Z,7.47
2018-04-30T23:34:20.502Z,9.00
2018-04-30T23:36:48.143Z,8.73
2018-04-30T23:39:16.184Z,9.17
2018-04-30T23:41:43.781Z,5.80
2018-04-30T23:44:11.506Z,6.60
2018-04-30T23:46:39.108Z,7.43
2018-04-30T23:49:06.983Z,6.40
2018-04-30T23:51:34.599Z,5.53
2018-04-30T23:54:02.146Z,5.30
2018-04-30T23:56:29.674Z,5.60
2018-04-30T23:58:57.449Z,5.50
